sensor_id;sensor_type;location;lat;lon;timestamp;temperature;humidity
55083;DHT22;40978;52.850;6.506;2023-01-19T00:02:24;2.70;99.90
55083;DHT22;40978;52.850;6.506;2023-01-19T00:04:50;2.80;99.90
55083;DHT22;40978;52.850;6.506;2023-01-19T00:07:16;2.80;99.90
55083;DHT22;40978;52.850;6.506;2023-01-19T00:09:42;2.70;99.90
55083;DHT22;40978;52.850;6.506;2023-01-19T00:12:08;2.90;99.90
55083;DHT22;40978;52.850;6.506;2023-01-19T00:14:33;2.80;99.90
55083;DHT22;40978;52.850;6.506;2023-01-19T00:16:59;2.80;99.90
55083;DHT22;40978;52.850;6.506;2023-01-19T00:19:27;2.80;99.90
55083;DHT22;40978;52.850;6.506;2023-01-19T00:21:53;2.70;99.90
55083;DHT22;40978;52.850;6.506;2023-01-19T00:24:18;2.70;99.90
55083;DHT22;40978;52.850;6.506;2023-01-19T00:26:44;2.60;99.90
55083;DHT22;40978;52.850;6.506;2023-01-19T00:29:11;2.60;99.90
55083;DHT22;40978;52.850;6.506;2023-01-19T00:31:38;2.50;99.90
55083;DHT22;40978;52.850;6.506;2023-01-19T00:34:04;2.50;99.90
55083;DHT22;40978;52.850;6.506;2023-01-19T00:36:31;2.40;99.90
55083;DHT22;40978;52.850;6.506;2023-01-19T00:38:57;2.40;99.90
55083;DHT22;40978;52.850;6.506;2023-01-19T00:41:23;2.40;99.90
55083;DHT22;40978;52.850;6.506;2023-01-19T00:44:10;2.30;99.90
55083;DHT22;40978;52.850;6.506;2023-01-19T00:46:36;2.30;99.90
55083;DHT22;40978;52.850;6.506;2023-01-19T00:49:02;2.20;99.90
55083;DHT22;40978;52.850;6.506;2023-01-19T00:51:28;2.10;99.90
55083;DHT22;40978;52.850;6.506;2023-01-19T00:53:53;2.10;99.90
55083;DHT22;40978;52.850;6.506;2023-01-19T00:56:19;2.10;99.90
55083;DHT22;40978;52.850;6.506;2023-01-19T00:58:45;2.10;99.90
55083;DHT22;40978;52.850;6.506;2023-01-19T01:01:11;2.10;99.90
55083;DHT22;40978;52.850;6.506;2023-01-19T01:03:38;2.10;99.90
55083;DHT22;40978;52.850;6.506;2023-01-19T01:06:04;2.10;99.90
55083;DHT22;40978;52.850;6.506;2023-01-19T01:08:33;2.10;99.90
55083;DHT22;40978;52.850;6.506;2023-01-19T01:10:59;2.10;99.90
55083;DHT22;40978;52.850;6.506;2023-01-19T01:13:26;2.00;99.90
55083;DHT22;40978;52.850;6.506;2023-01-19T01:15:52;2.10;99.90
55083;DHT22;40978;52.850;6.506;2023-01-19T01:18:20;2.10;99.90
55083;DHT22;40978;52.850;6.506;2023-01-19T01:20:46;2.10;99.90
55083;DHT22;40978;52.850;6.506;2023-01-19T01:23:12;2.10;99.90
55083;DHT22;40978;52.850;6.506;2023-01-19T01:25:38;2.10;99.90
55083;DHT22;40978;52.850;6.506;2023-01-19T01:28:06;2.10;99.90
55083;DHT22;40978;52.850;6.506;2023-01-19T01:30:36;2.10;99.90
55083;DHT22;40978;52.850;6.506;2023-01-19T01:33:06;2.10;99.90
55083;DHT22;40978;52.850;6.506;2023-01-19T01:35:32;2.10;99.90
55083;DHT22;40978;52.850;6.506;2023-01-19T01:37:59;2.10;99.90
55083;DHT22;40978;52.850;6.506;2023-01-19T01:40:25;2.10;99.90
55083;DHT22;40978;52.850;6.506;2023-01-19T01:42:52;2.10;99.90
55083;DHT22;40978;52.850;6.506;2023-01-19T01:45:34;2.10;99.90
55083;DHT22;40978;52.850;6.506;2023-01-19T01:48:24;2.10;99.90
55083;DHT22;40978;52.850;6.506;2023-01-19T01:51:05;2.10;99.90
55083;DHT22;40978;52.850;6.506;2023-01-19T01:56:40;2.10;99.90
55083;DHT22;40978;52.850;6.506;2023-01-19T01:59:10;2.10;99.90
55083;DHT22;40978;52.850;6.506;2023-01-19T02:01:38;2.10;99.90
55083;DHT22;40978;52.850;6.506;2023-01-19T02:04:22;2.10;99.90
55083;DHT22;40978;52.850;6.506;2023-01-19T02:06:48;2.10;99.90
55083;DHT22;40978;52.850;6.506;2023-01-19T02:09:33;2.10;99.90
55083;DHT22;40978;52.850;6.506;2023-01-19T02:12:19;2.10;99.90
55083;DHT22;40978;52.850;6.506;2023-01-19T02:15:03;2.10;99.90
55083;DHT22;40978;52.850;6.506;2023-01-19T02:17:29;2.10;99.90
55083;DHT22;40978;52.850;6.506;2023-01-19T02:19:54;2.10;99.90
55083;DHT22;40978;52.850;6.506;2023-01-19T02:22:32;2.10;99.90
55083;DHT22;40978;52.850;6.506;2023-01-19T02:25:02;2.10;99.90
55083;DHT22;40978;52.850;6.506;2023-01-19T02:27:28;2.10;99.90
55083;DHT22;40978;52.850;6.506;2023-01-19T02:29:53;2.10;99.90
55083;DHT22;40978;52.850;6.506;2023-01-19T02:32:19;2.00;99.90
55083;DHT22;40978;52.850;6.506;2023-01-19T02:34:45;2.10;99.90
55083;DHT22;40978;52.850;6.506;2023-01-19T02:37:11;2.10;99.90
55083;DHT22;40978;52.850;6.506;2023-01-19T02:39:48;2.10;99.90
55083;DHT22;40978;52.850;6.506;2023-01-19T02:44:45;2.20;99.90
55083;DHT22;40978;52.850;6.506;2023-01-19T02:47:12;2.10;99.90
55083;DHT22;40978;52.850;6.506;2023-01-19T02:49:38;2.20;99.90
55083;DHT22;40978;52.850;6.506;2023-01-19T02:52:04;2.20;99.90
55083;DHT22;40978;52.850;6.506;2023-01-19T02:54:40;2.20;99.90
55083;DHT22;40978;52.850;6.506;2023-01-19T03:00:16;2.20;99.90
55083;DHT22;40978;52.850;6.506;2023-01-19T03:05:48;2.20;99.90
55083;DHT22;40978;52.850;6.506;2023-01-19T03:15:57;2.20;99.90
55083;DHT22;40978;52.850;6.506;2023-01-19T03:18:27;2.20;99.90
55083;DHT22;40978;52.850;6.506;2023-01-19T03:20:56;2.20;99.90
55083;DHT22;40978;52.850;6.506;2023-01-19T03:23:25;2.20;99.90
55083;DHT22;40978;52.850;6.506;2023-01-19T03:25:51;2.20;99.90
55083;DHT22;40978;52.850;6.506;2023-01-19T03:28:18;2.10;99.90
55083;DHT22;40978;52.850;6.506;2023-01-19T03:30:45;2.10;99.90
55083;DHT22;40978;52.850;6.506;2023-01-19T03:33:13;2.00;99.90
55083;DHT22;40978;52.850;6.506;2023-01-19T03:35:44;2.00;99.90
55083;DHT22;40978;52.850;6.506;2023-01-19T03:38:17;2.00;99.90
55083;DHT22;40978;52.850;6.506;2023-01-19T03:40:44;1.90;99.90
55083;DHT22;40978;52.850;6.506;2023-01-19T03:43:12;1.90;99.90
55083;DHT22;40978;52.850;6.506;2023-01-19T03:45:40;1.90;99.90
55083;DHT22;40978;52.850;6.506;2023-01-19T03:48:06;1.90;99.90
55083;DHT22;40978;52.850;6.506;2023-01-19T03:50:31;1.90;99.90
55083;DHT22;40978;52.850;6.506;2023-01-19T03:53:10;1.90;99.90
55083;DHT22;40978;52.850;6.506;2023-01-19T03:55:37;1.90;99.90
55083;DHT22;40978;52.850;6.506;2023-01-19T03:58:03;1.90;99.90
55083;DHT22;40978;52.850;6.506;2023-01-19T04:00:29;1.90;99.90
55083;DHT22;40978;52.850;6.506;2023-01-19T04:02:55;1.90;99.90
55083;DHT22;40978;52.850;6.506;2023-01-19T04:05:20;1.90;99.90
55083;DHT22;40978;52.850;6.506;2023-01-19T04:07:47;1.90;99.90
55083;DHT22;40978;52.850;6.506;2023-01-19T04:10:13;1.80;99.90
55083;DHT22;40978;52.850;6.506;2023-01-19T04:12:40;1.80;99.90
55083;DHT22;40978;52.850;6.506;2023-01-19T04:15:06;1.90;99.90
55083;DHT22;40978;52.850;6.506;2023-01-19T04:17:32;1.90;99.90
55083;DHT22;40978;52.850;6.506;2023-01-19T04:19:57;1.80;99.90
55083;DHT22;40978;52.850;6.506;2023-01-19T04:22:23;1.80;99.90
55083;DHT22;40978;52.850;6.506;2023-01-19T04:24:48;1.80;99.90
55083;DHT22;40978;52.850;6.506;2023-01-19T04:27:15;1.90;99.90
55083;DHT22;40978;52.850;6.506;2023-01-19T04:29:40;1.90;99.90
55083;DHT22;40978;52.850;6.506;2023-01-19T04:32:06;1.90;99.90
55083;DHT22;40978;52.850;6.506;2023-01-19T04:34:32;1.90;99.90
55083;DHT22;40978;52.850;6.506;2023-01-19T04:36:57;2.00;99.90
55083;DHT22;40978;52.850;6.506;2023-01-19T04:39:23;2.20;99.90
55083;DHT22;40978;52.850;6.506;2023-01-19T04:41:49;2.20;99.90
55083;DHT22;40978;52.850;6.506;2023-01-19T04:44:16;2.20;99.90
55083;DHT22;40978;52.850;6.506;2023-01-19T04:46:42;2.30;99.90
55083;DHT22;40978;52.850;6.506;2023-01-19T04:49:08;2.30;99.90
55083;DHT22;40978;52.850;6.506;2023-01-19T04:51:34;2.30;99.90
55083;DHT22;40978;52.850;6.506;2023-01-19T04:54:00;2.30;99.90
55083;DHT22;40978;52.850;6.506;2023-01-19T04:56:26;2.40;99.90
55083;DHT22;40978;52.850;6.506;2023-01-19T04:58:51;2.40;99.90
55083;DHT22;40978;52.850;6.506;2023-01-19T05:01:17;2.40;99.90
55083;DHT22;40978;52.850;6.506;2023-01-19T05:03:43;2.40;99.90
55083;DHT22;40978;52.850;6.506;2023-01-19T05:06:08;2.40;99.90
55083;DHT22;40978;52.850;6.506;2023-01-19T05:08:34;2.50;99.90
55083;DHT22;40978;52.850;6.506;2023-01-19T05:10:59;2.50;99.90
55083;DHT22;40978;52.850;6.506;2023-01-19T05:13:25;2.50;99.90
55083;DHT22;40978;52.850;6.506;2023-01-19T05:15:51;2.50;99.90
55083;DHT22;40978;52.850;6.506;2023-01-19T05:18:17;2.50;99.90
55083;DHT22;40978;52.850;6.506;2023-01-19T05:20:42;2.50;99.90
55083;DHT22;40978;52.850;6.506;2023-01-19T05:23:08;2.60;99.90
55083;DHT22;40978;52.850;6.506;2023-01-19T05:25:34;2.60;99.90
55083;DHT22;40978;52.850;6.506;2023-01-19T05:27:59;2.60;99.90
55083;DHT22;40978;52.850;6.506;2023-01-19T05:30:25;2.70;99.90
55083;DHT22;40978;52.850;6.506;2023-01-19T05:32:50;2.70;99.90
55083;DHT22;40978;52.850;6.506;2023-01-19T05:35:16;2.70;99.90
55083;DHT22;40978;52.850;6.506;2023-01-19T05:37:42;2.70;99.90
55083;DHT22;40978;52.850;6.506;2023-01-19T05:40:08;2.70;99.90
55083;DHT22;40978;52.850;6.506;2023-01-19T05:42:35;2.70;99.90
55083;DHT22;40978;52.850;6.506;2023-01-19T05:45:01;2.70;99.90
55083;DHT22;40978;52.850;6.506;2023-01-19T05:47:29;2.70;99.90
55083;DHT22;40978;52.850;6.506;2023-01-19T05:49:55;2.80;99.90
55083;DHT22;40978;52.850;6.506;2023-01-19T05:52:21;2.90;99.90
55083;DHT22;40978;52.850;6.506;2023-01-19T05:54:49;2.90;99.90
55083;DHT22;40978;52.850;6.506;2023-01-19T05:57:16;2.90;99.90
55083;DHT22;40978;52.850;6.506;2023-01-19T05:59:41;3.00;99.90
55083;DHT22;40978;52.850;6.506;2023-01-19T06:02:07;3.00;99.90
55083;DHT22;40978;52.850;6.506;2023-01-19T06:04:33;3.00;99.90
55083;DHT22;40978;52.850;6.506;2023-01-19T06:06:58;3.00;99.90
55083;DHT22;40978;52.850;6.506;2023-01-19T06:09:24;3.00;99.90
55083;DHT22;40978;52.850;6.506;2023-01-19T06:11:49;2.90;99.90
55083;DHT22;40978;52.850;6.506;2023-01-19T06:14:15;2.90;99.90
55083;DHT22;40978;52.850;6.506;2023-01-19T06:16:41;2.90;99.90
55083;DHT22;40978;52.850;6.506;2023-01-19T06:19:06;2.90;99.90
55083;DHT22;40978;52.850;6.506;2023-01-19T06:21:32;2.80;99.90
55083;DHT22;40978;52.850;6.506;2023-01-19T06:23:58;2.90;99.90
55083;DHT22;40978;52.850;6.506;2023-01-19T06:26:24;2.80;99.90
55083;DHT22;40978;52.850;6.506;2023-01-19T06:28:50;2.70;99.90
55083;DHT22;40978;52.850;6.506;2023-01-19T06:31:16;2.80;99.90
55083;DHT22;40978;52.850;6.506;2023-01-19T06:33:42;2.70;99.90
55083;DHT22;40978;52.850;6.506;2023-01-19T06:36:07;2.60;99.90
55083;DHT22;40978;52.850;6.506;2023-01-19T06:38:33;2.50;99.90
55083;DHT22;40978;52.850;6.506;2023-01-19T06:40:59;2.50;99.90
55083;DHT22;40978;52.850;6.506;2023-01-19T06:43:27;2.50;99.90
55083;DHT22;40978;52.850;6.506;2023-01-19T06:45:53;2.40;99.90
55083;DHT22;40978;52.850;6.506;2023-01-19T06:48:19;2.30;99.90
55083;DHT22;40978;52.850;6.506;2023-01-19T06:50:45;2.30;99.90
55083;DHT22;40978;52.850;6.506;2023-01-19T06:53:10;2.30;99.90
55083;DHT22;40978;52.850;6.506;2023-01-19T06:55:36;2.30;99.90
55083;DHT22;40978;52.850;6.506;2023-01-19T06:58:03;2.30;99.90
55083;DHT22;40978;52.850;6.506;2023-01-19T07:00:29;2.30;99.90
55083;DHT22;40978;52.850;6.506;2023-01-19T07:02:55;2.30;99.90
55083;DHT22;40978;52.850;6.506;2023-01-19T07:05:21;2.30;99.90
55083;DHT22;40978;52.850;6.506;2023-01-19T07:07:53;2.40;99.90
55083;DHT22;40978;52.850;6.506;2023-01-19T07:10:20;2.50;99.90
55083;DHT22;40978;52.850;6.506;2023-01-19T07:12:45;2.50;99.90
55083;DHT22;40978;52.850;6.506;2023-01-19T07:15:12;2.60;99.90
55083;DHT22;40978;52.850;6.506;2023-01-19T07:17:39;2.70;99.90
55083;DHT22;40978;52.850;6.506;2023-01-19T07:20:07;2.70;99.90
55083;DHT22;40978;52.850;6.506;2023-01-19T07:22:33;2.70;99.90
55083;DHT22;40978;52.850;6.506;2023-01-19T07:24:59;2.70;99.90
55083;DHT22;40978;52.850;6.506;2023-01-19T07:27:25;2.60;99.90
55083;DHT22;40978;52.850;6.506;2023-01-19T07:29:53;2.70;99.90
55083;DHT22;40978;52.850;6.506;2023-01-19T07:32:18;2.70;99.90
55083;DHT22;40978;52.850;6.506;2023-01-19T07:34:44;2.70;99.90
55083;DHT22;40978;52.850;6.506;2023-01-19T07:37:10;2.80;99.90
55083;DHT22;40978;52.850;6.506;2023-01-19T07:39:35;2.70;99.90
55083;DHT22;40978;52.850;6.506;2023-01-19T07:42:01;2.70;99.90
55083;DHT22;40978;52.850;6.506;2023-01-19T07:44:27;2.70;99.90
55083;DHT22;40978;52.850;6.506;2023-01-19T07:46:53;2.60;99.90
55083;DHT22;40978;52.850;6.506;2023-01-19T07:49:18;2.60;99.90
55083;DHT22;40978;52.850;6.506;2023-01-19T07:51:45;2.50;99.90
55083;DHT22;40978;52.850;6.506;2023-01-19T07:54:10;2.50;99.90
55083;DHT22;40978;52.850;6.506;2023-01-19T07:56:36;2.50;99.90
55083;DHT22;40978;52.850;6.506;2023-01-19T07:59:02;2.50;99.90
55083;DHT22;40978;52.850;6.506;2023-01-19T08:01:27;2.50;99.90
55083;DHT22;40978;52.850;6.506;2023-01-19T08:03:54;2.50;99.90
55083;DHT22;40978;52.850;6.506;2023-01-19T08:06:20;2.60;99.90
55083;DHT22;40978;52.850;6.506;2023-01-19T08:08:46;2.50;99.90
55083;DHT22;40978;52.850;6.506;2023-01-19T08:11:12;2.50;99.90
55083;DHT22;40978;52.850;6.506;2023-01-19T08:13:38;2.50;99.90
55083;DHT22;40978;52.850;6.506;2023-01-19T08:16:03;2.40;99.90
55083;DHT22;40978;52.850;6.506;2023-01-19T08:18:29;2.40;99.90
55083;DHT22;40978;52.850;6.506;2023-01-19T08:20:56;2.40;99.90
55083;DHT22;40978;52.850;6.506;2023-01-19T08:23:22;2.40;99.90
55083;DHT22;40978;52.850;6.506;2023-01-19T08:25:48;2.40;99.90
55083;DHT22;40978;52.850;6.506;2023-01-19T08:28:14;2.40;99.90
55083;DHT22;40978;52.850;6.506;2023-01-19T08:30:40;2.30;99.90
55083;DHT22;40978;52.850;6.506;2023-01-19T08:33:07;2.40;99.90
55083;DHT22;40978;52.850;6.506;2023-01-19T08:35:34;2.40;99.90
55083;DHT22;40978;52.850;6.506;2023-01-19T08:38:01;2.50;99.90
55083;DHT22;40978;52.850;6.506;2023-01-19T08:40:27;2.60;99.90
55083;DHT22;40978;52.850;6.506;2023-01-19T08:42:57;2.60;99.90
55083;DHT22;40978;52.850;6.506;2023-01-19T08:45:25;2.70;99.90
55083;DHT22;40978;52.850;6.506;2023-01-19T08:47:51;2.80;99.90
55083;DHT22;40978;52.850;6.506;2023-01-19T08:50:17;2.80;99.90
55083;DHT22;40978;52.850;6.506;2023-01-19T08:52:42;2.90;99.90
55083;DHT22;40978;52.850;6.506;2023-01-19T08:55:08;2.90;99.90
55083;DHT22;40978;52.850;6.506;2023-01-19T08:57:35;2.90;99.90
55083;DHT22;40978;52.850;6.506;2023-01-19T09:00:01;2.90;99.90
55083;DHT22;40978;52.850;6.506;2023-01-19T09:02:27;3.00;99.90
55083;DHT22;40978;52.850;6.506;2023-01-19T09:04:52;3.00;99.90
55083;DHT22;40978;52.850;6.506;2023-01-19T09:07:18;3.00;99.90
55083;DHT22;40978;52.850;6.506;2023-01-19T09:09:44;3.00;99.90
55083;DHT22;40978;52.850;6.506;2023-01-19T09:12:09;3.00;99.90
55083;DHT22;40978;52.850;6.506;2023-01-19T09:14:35;2.90;99.90
55083;DHT22;40978;52.850;6.506;2023-01-19T09:17:00;2.90;99.90
55083;DHT22;40978;52.850;6.506;2023-01-19T09:19:26;2.90;99.90
55083;DHT22;40978;52.850;6.506;2023-01-19T09:21:52;2.90;99.90
55083;DHT22;40978;52.850;6.506;2023-01-19T09:24:18;2.90;99.90
55083;DHT22;40978;52.850;6.506;2023-01-19T09:26:44;2.90;99.90
55083;DHT22;40978;52.850;6.506;2023-01-19T09:29:10;2.80;99.90
55083;DHT22;40978;52.850;6.506;2023-01-19T09:31:35;2.80;99.90
55083;DHT22;40978;52.850;6.506;2023-01-19T09:34:01;2.80;99.90
55083;DHT22;40978;52.850;6.506;2023-01-19T09:36:27;2.90;99.90
55083;DHT22;40978;52.850;6.506;2023-01-19T09:38:52;2.80;99.90
55083;DHT22;40978;52.850;6.506;2023-01-19T09:41:19;2.80;99.90
55083;DHT22;40978;52.850;6.506;2023-01-19T09:43:56;2.90;99.90
55083;DHT22;40978;52.850;6.506;2023-01-19T09:46:38;3.00;99.90
55083;DHT22;40978;52.850;6.506;2023-01-19T09:49:09;3.00;99.90
55083;DHT22;40978;52.850;6.506;2023-01-19T09:51:37;3.10;99.90
55083;DHT22;40978;52.850;6.506;2023-01-19T09:56:29;3.30;99.90
55083;DHT22;40978;52.850;6.506;2023-01-19T09:58:55;3.50;99.90
55083;DHT22;40978;52.850;6.506;2023-01-19T10:01:35;3.70;99.90
55083;DHT22;40978;52.850;6.506;2023-01-19T10:06:30;3.80;99.90
55083;DHT22;40978;52.850;6.506;2023-01-19T10:09:06;3.80;99.90
55083;DHT22;40978;52.850;6.506;2023-01-19T10:11:35;3.80;99.90
55083;DHT22;40978;52.850;6.506;2023-01-19T10:14:02;3.90;99.90
55083;DHT22;40978;52.850;6.506;2023-01-19T10:16:48;3.90;99.90
55083;DHT22;40978;52.850;6.506;2023-01-19T10:19:19;4.00;99.90
55083;DHT22;40978;52.850;6.506;2023-01-19T10:21:46;4.10;99.90
55083;DHT22;40978;52.850;6.506;2023-01-19T10:26:47;4.10;99.90
55083;DHT22;40978;52.850;6.506;2023-01-19T10:31:41;4.10;99.90
55083;DHT22;40978;52.850;6.506;2023-01-19T10:34:12;4.20;99.90
55083;DHT22;40978;52.850;6.506;2023-01-19T10:36:43;4.20;99.90
55083;DHT22;40978;52.850;6.506;2023-01-19T10:39:10;4.20;99.90
55083;DHT22;40978;52.850;6.506;2023-01-19T10:44:03;4.30;99.90
55083;DHT22;40978;52.850;6.506;2023-01-19T10:46:45;4.30;99.90
55083;DHT22;40978;52.850;6.506;2023-01-19T10:51:57;4.40;99.90
55083;DHT22;40978;52.850;6.506;2023-01-19T10:54:23;4.40;99.90
55083;DHT22;40978;52.850;6.506;2023-01-19T10:56:53;4.40;99.90
55083;DHT22;40978;52.850;6.506;2023-01-19T10:59:28;4.40;99.90
55083;DHT22;40978;52.850;6.506;2023-01-19T11:04:54;4.60;99.90
55083;DHT22;40978;52.850;6.506;2023-01-19T11:07:21;4.60;99.90
55083;DHT22;40978;52.850;6.506;2023-01-19T11:09:48;4.60;99.90
55083;DHT22;40978;52.850;6.506;2023-01-19T11:14:42;4.70;99.90
55083;DHT22;40978;52.850;6.506;2023-01-19T11:17:14;4.70;99.90
55083;DHT22;40978;52.850;6.506;2023-01-19T11:19:42;4.70;99.90
55083;DHT22;40978;52.850;6.506;2023-01-19T11:22:17;4.70;99.90
55083;DHT22;40978;52.850;6.506;2023-01-19T11:24:46;4.70;99.90
55083;DHT22;40978;52.850;6.506;2023-01-19T11:27:16;4.70;99.90
55083;DHT22;40978;52.850;6.506;2023-01-19T11:29:49;4.70;99.90
55083;DHT22;40978;52.850;6.506;2023-01-19T11:32:18;4.70;99.90
55083;DHT22;40978;52.850;6.506;2023-01-19T11:34:44;4.70;99.90
55083;DHT22;40978;52.850;6.506;2023-01-19T11:39:46;4.70;99.90
55083;DHT22;40978;52.850;6.506;2023-01-19T11:42:12;4.80;99.90
55083;DHT22;40978;52.850;6.506;2023-01-19T11:44:39;4.80;99.90
55083;DHT22;40978;52.850;6.506;2023-01-19T11:47:17;4.80;99.90
55083;DHT22;40978;52.850;6.506;2023-01-19T11:49:46;4.80;99.90
55083;DHT22;40978;52.850;6.506;2023-01-19T11:55:17;4.80;99.90
55083;DHT22;40978;52.850;6.506;2023-01-19T11:57:34;4.80;99.90
55083;DHT22;40978;52.850;6.506;2023-01-19T12:00:00;4.80;99.90
55083;DHT22;40978;52.850;6.506;2023-01-19T12:02:34;4.80;99.90
55083;DHT22;40978;52.850;6.506;2023-01-19T12:05:05;4.80;99.90
55083;DHT22;40978;52.850;6.506;2023-01-19T12:07:32;4.90;99.90
55083;DHT22;40978;52.850;6.506;2023-01-19T12:10:19;4.90;99.90
55083;DHT22;40978;52.850;6.506;2023-01-19T12:12:45;4.90;99.90
55083;DHT22;40978;52.850;6.506;2023-01-19T12:17:47;4.80;99.90
55083;DHT22;40978;52.850;6.506;2023-01-19T12:22:57;4.60;99.90
55083;DHT22;40978;52.850;6.506;2023-01-19T12:25:28;4.40;99.90
55083;DHT22;40978;52.850;6.506;2023-01-19T12:27:55;4.40;99.90
55083;DHT22;40978;52.850;6.506;2023-01-19T12:30:22;4.40;99.90
55083;DHT22;40978;52.850;6.506;2023-01-19T12:32:49;4.30;99.90
55083;DHT22;40978;52.850;6.506;2023-01-19T12:38:00;4.10;99.90
55083;DHT22;40978;52.850;6.506;2023-01-19T12:40:26;4.10;99.90
55083;DHT22;40978;52.850;6.506;2023-01-19T12:42:57;4.20;99.90
55083;DHT22;40978;52.850;6.506;2023-01-19T12:45:23;4.20;99.90
55083;DHT22;40978;52.850;6.506;2023-01-19T12:47:53;4.20;99.90
55083;DHT22;40978;52.850;6.506;2023-01-19T12:50:19;4.30;99.90
55083;DHT22;40978;52.850;6.506;2023-01-19T12:52:48;4.20;99.90
55083;DHT22;40978;52.850;6.506;2023-01-19T12:55:17;4.20;99.90
55083;DHT22;40978;52.850;6.506;2023-01-19T12:57:58;4.20;99.90
55083;DHT22;40978;52.850;6.506;2023-01-19T13:03:40;4.10;99.90
55083;DHT22;40978;52.850;6.506;2023-01-19T13:13:18;4.30;99.90
55083;DHT22;40978;52.850;6.506;2023-01-19T13:15:44;4.40;99.90
55083;DHT22;40978;52.850;6.506;2023-01-19T13:18:17;4.50;99.90
55083;DHT22;40978;52.850;6.506;2023-01-19T13:26:11;4.80;99.90
55083;DHT22;40978;52.850;6.506;2023-01-19T13:28:43;4.90;99.90
55083;DHT22;40978;52.850;6.506;2023-01-19T13:31:09;4.90;99.90
55083;DHT22;40978;52.850;6.506;2023-01-19T13:36:04;4.90;99.90
55083;DHT22;40978;52.850;6.506;2023-01-19T13:38:39;5.00;99.90
55083;DHT22;40978;52.850;6.506;2023-01-19T13:41:05;5.00;99.90
55083;DHT22;40978;52.850;6.506;2023-01-19T13:43:31;5.00;99.90
55083;DHT22;40978;52.850;6.506;2023-01-19T13:46:00;5.30;99.90
55083;DHT22;40978;52.850;6.506;2023-01-19T13:48:25;5.30;99.90
55083;DHT22;40978;52.850;6.506;2023-01-19T13:50:55;5.10;99.90
55083;DHT22;40978;52.850;6.506;2023-01-19T13:53:21;4.90;99.90
55083;DHT22;40978;52.850;6.506;2023-01-19T13:56:04;4.90;99.90
55083;DHT22;40978;52.850;6.506;2023-01-19T13:58:30;4.60;99.90
55083;DHT22;40978;52.850;6.506;2023-01-19T14:00:56;4.50;99.90
55083;DHT22;40978;52.850;6.506;2023-01-19T14:03:22;4.50;99.90
55083;DHT22;40978;52.850;6.506;2023-01-19T14:05:49;4.50;99.90
55083;DHT22;40978;52.850;6.506;2023-01-19T14:08:14;4.50;99.90
55083;DHT22;40978;52.850;6.506;2023-01-19T14:13:14;4.40;99.90
55083;DHT22;40978;52.850;6.506;2023-01-19T14:15:40;4.50;99.90
55083;DHT22;40978;52.850;6.506;2023-01-19T14:18:27;4.40;99.90
55083;DHT22;40978;52.850;6.506;2023-01-19T14:21:03;4.40;99.90
55083;DHT22;40978;52.850;6.506;2023-01-19T14:28:53;4.20;99.90
55083;DHT22;40978;52.850;6.506;2023-01-19T14:31:23;4.10;99.90
55083;DHT22;40978;52.850;6.506;2023-01-19T14:33:50;4.00;99.90
55083;DHT22;40978;52.850;6.506;2023-01-19T14:36:26;4.00;99.90
55083;DHT22;40978;52.850;6.506;2023-01-19T14:38:52;3.90;99.90
55083;DHT22;40978;52.850;6.506;2023-01-19T14:44:07;3.80;99.90
55083;DHT22;40978;52.850;6.506;2023-01-19T14:46:32;3.70;99.90
55083;DHT22;40978;52.850;6.506;2023-01-19T14:49:02;3.80;99.90
55083;DHT22;40978;52.850;6.506;2023-01-19T14:51:28;3.70;99.90
55083;DHT22;40978;52.850;6.506;2023-01-19T14:53:56;3.60;99.90
55083;DHT22;40978;52.850;6.506;2023-01-19T14:56:23;3.60;99.90
55083;DHT22;40978;52.850;6.506;2023-01-19T14:58:49;3.60;99.90
55083;DHT22;40978;52.850;6.506;2023-01-19T15:01:15;3.60;99.90
55083;DHT22;40978;52.850;6.506;2023-01-19T15:03:40;3.50;99.90
55083;DHT22;40978;52.850;6.506;2023-01-19T15:06:08;3.50;99.90
55083;DHT22;40978;52.850;6.506;2023-01-19T15:08:35;3.50;99.90
55083;DHT22;40978;52.850;6.506;2023-01-19T15:11:36;3.40;99.90
55083;DHT22;40978;52.850;6.506;2023-01-19T15:13:55;3.40;99.90
55083;DHT22;40978;52.850;6.506;2023-01-19T15:16:21;3.30;99.90
55083;DHT22;40978;52.850;6.506;2023-01-19T15:18:47;3.30;99.90
55083;DHT22;40978;52.850;6.506;2023-01-19T15:21:16;3.30;99.90
55083;DHT22;40978;52.850;6.506;2023-01-19T15:23:44;3.20;99.90
55083;DHT22;40978;52.850;6.506;2023-01-19T15:26:12;3.10;99.90
55083;DHT22;40978;52.850;6.506;2023-01-19T15:28:39;3.20;99.90
55083;DHT22;40978;52.850;6.506;2023-01-19T15:31:05;3.00;99.90
55083;DHT22;40978;52.850;6.506;2023-01-19T15:33:31;3.00;99.90
55083;DHT22;40978;52.850;6.506;2023-01-19T15:35:57;3.00;99.90
55083;DHT22;40978;52.850;6.506;2023-01-19T15:38:23;3.00;99.90
55083;DHT22;40978;52.850;6.506;2023-01-19T15:40:48;3.00;99.90
55083;DHT22;40978;52.850;6.506;2023-01-19T15:43:14;3.00;99.90
55083;DHT22;40978;52.850;6.506;2023-01-19T15:45:41;3.00;99.90
55083;DHT22;40978;52.850;6.506;2023-01-19T15:48:08;3.00;99.90
55083;DHT22;40978;52.850;6.506;2023-01-19T15:50:34;2.90;99.90
55083;DHT22;40978;52.850;6.506;2023-01-19T15:53:00;2.90;99.90
55083;DHT22;40978;52.850;6.506;2023-01-19T15:55:26;2.90;99.90
55083;DHT22;40978;52.850;6.506;2023-01-19T15:57:51;2.90;99.90
55083;DHT22;40978;52.850;6.506;2023-01-19T16:00:17;2.90;99.90
55083;DHT22;40978;52.850;6.506;2023-01-19T16:02:43;2.90;99.90
55083;DHT22;40978;52.850;6.506;2023-01-19T16:05:09;2.80;99.90
55083;DHT22;40978;52.850;6.506;2023-01-19T16:07:35;2.80;99.90
55083;DHT22;40978;52.850;6.506;2023-01-19T16:10:00;2.80;99.90
55083;DHT22;40978;52.850;6.506;2023-01-19T16:12:29;2.70;99.90
55083;DHT22;40978;52.850;6.506;2023-01-19T16:14:54;2.80;99.90
55083;DHT22;40978;52.850;6.506;2023-01-19T16:17:20;2.70;99.90
55083;DHT22;40978;52.850;6.506;2023-01-19T16:19:46;2.60;99.90
55083;DHT22;40978;52.850;6.506;2023-01-19T16:22:12;2.60;99.90
55083;DHT22;40978;52.850;6.506;2023-01-19T16:24:37;2.50;99.90
55083;DHT22;40978;52.850;6.506;2023-01-19T16:27:03;2.40;99.90
55083;DHT22;40978;52.850;6.506;2023-01-19T16:29:29;2.30;99.90
55083;DHT22;40978;52.850;6.506;2023-01-19T16:31:55;2.20;99.90
55083;DHT22;40978;52.850;6.506;2023-01-19T16:34:20;2.10;99.90
55083;DHT22;40978;52.850;6.506;2023-01-19T16:36:48;2.00;99.90
55083;DHT22;40978;52.850;6.506;2023-01-19T16:39:14;1.90;99.90
55083;DHT22;40978;52.850;6.506;2023-01-19T16:41:40;1.90;99.90
55083;DHT22;40978;52.850;6.506;2023-01-19T16:44:06;1.80;99.90
55083;DHT22;40978;52.850;6.506;2023-01-19T16:46:34;1.70;99.90
55083;DHT22;40978;52.850;6.506;2023-01-19T16:49:00;1.70;99.90
55083;DHT22;40978;52.850;6.506;2023-01-19T16:51:26;1.60;99.90
55083;DHT22;40978;52.850;6.506;2023-01-19T16:53:52;1.60;99.90
55083;DHT22;40978;52.850;6.506;2023-01-19T16:56:17;1.50;99.90
55083;DHT22;40978;52.850;6.506;2023-01-19T16:58:43;1.40;99.90
55083;DHT22;40978;52.850;6.506;2023-01-19T17:01:10;1.40;99.90
55083;DHT22;40978;52.850;6.506;2023-01-19T17:03:36;1.40;99.90
55083;DHT22;40978;52.850;6.506;2023-01-19T17:06:03;1.30;99.90
55083;DHT22;40978;52.850;6.506;2023-01-19T17:08:29;1.30;99.90
55083;DHT22;40978;52.850;6.506;2023-01-19T17:10:54;1.30;99.90